Time;durP1;ratioP1;P1;durP2;ratioP2;P2;SDS_P1;SDS_P2;PMS_P1;PMS_P2;Temp;Humidity;BMP_temperature;BMP_pressure;BME280_temperature;BME280_humidity;BME280_pressure;Samples;Min_cycle;Max_cycle;Signal;HPM_P1;HPM_P2
2023/08/20 00:00:08;;;;;;;;;2.00;1.00;;;;;25.50;100.00;101705.47;5076595;28;45605;-73
2023/08/20 00:02:35;;;;;;;;;1.00;1.00;;;;;25.45;100.00;101711.03;5073442;28;46702;-74
2023/08/20 00:05:03;;;;;;;;;1.00;0.00;;;;;25.49;100.00;101714.53;5054971;28;45343;-73
2023/08/20 00:07:29;;;;;;;;;0.67;0.67;;;;;25.46;100.00;101715.53;5066630;28;45376;-73
2023/08/20 00:09:54;;;;;;;;;1.67;1.00;;;;;25.45;100.00;101710.16;5071147;28;45298;-74
2023/08/20 00:12:20;;;;;;;;;2.00;1.00;;;;;25.43;100.00;101718.34;5068450;28;46234;-73
2023/08/20 00:15:04;;;;;;;;;1.00;1.00;;;;;25.41;100.00;101714.81;5065187;28;45217;-73
2023/08/20 00:17:31;;;;;;;;;5.67;1.00;;;;;25.41;100.00;101716.59;5067887;28;45339;-72
2023/08/20 00:19:56;;;;;;;;;1.00;1.00;;;;;25.35;100.00;101709.59;5066571;28;45339;-73
2023/08/20 00:22:23;;;;;;;;;2.00;0.67;;;;;25.31;100.00;101718.78;5070110;28;45745;-75
2023/08/20 00:24:49;;;;;;;;;1.33;1.33;;;;;25.29;100.00;101716.13;5052152;28;45461;-72
2023/08/20 00:27:14;;;;;;;;;1.67;1.00;;;;;25.27;100.00;101720.72;5072220;28;45248;-73
2023/08/20 00:29:39;;;;;;;;;3.00;1.00;;;;;25.24;100.00;101720.81;5072928;28;61689;-73
2023/08/20 00:32:05;;;;;;;;;2.67;1.33;;;;;25.28;100.00;101721.59;5073455;28;72434;-75
2023/08/20 00:34:30;;;;;;;;;1.00;1.00;;;;;25.19;100.00;101720.09;5077021;28;45280;-73
2023/08/20 00:36:55;;;;;;;;;2.00;1.00;;;;;25.18;100.00;101726.44;5073104;28;60723;-74
2023/08/20 00:39:21;;;;;;;;;1.00;1.00;;;;;25.13;100.00;101725.72;5070808;27;53160;-75
2023/08/20 00:41:46;;;;;;;;;3.00;2.00;;;;;25.15;100.00;101717.59;5076120;28;46142;-75
2023/08/20 00:44:11;;;;;;;;;3.00;0.00;;;;;25.12;100.00;101721.25;5062241;28;64400;-75
2023/08/20 00:46:37;;;;;;;;;4.67;1.00;;;;;25.11;100.00;101730.31;5066468;28;60830;-75
2023/08/20 00:49:02;;;;;;;;;1.33;1.33;;;;;25.10;100.00;101723.16;5068333;28;45521;-73
2023/08/20 00:51:28;;;;;;;;;2.33;1.00;;;;;25.10;100.00;101722.25;5068844;28;46332;-73
2023/08/20 00:53:54;;;;;;;;;3.00;2.00;;;;;25.09;100.00;101729.50;5047018;28;66744;-75
2023/08/20 00:56:20;;;;;;;;;2.00;1.00;;;;;25.03;100.00;101722.41;5069409;28;45455;-74
2023/08/20 00:58:45;;;;;;;;;1.00;1.00;;;;;25.01;100.00;101718.91;5071807;28;59842;-73
2023/08/20 01:01:11;;;;;;;;;1.33;1.33;;;;;24.97;100.00;101732.56;5072549;28;70687;-74
2023/08/20 01:03:36;;;;;;;;;1.00;1.00;;;;;24.93;100.00;101729.13;5075565;28;66176;-74
2023/08/20 01:06:43;;;;;;;;;3.00;1.00;;;;;24.91;100.00;101725.56;5075061;28;64075;-73
2023/08/20 01:09:28;;;;;;;;;4.00;1.00;;;;;24.88;100.00;101727.50;5072013;28;45469;-73
2023/08/20 01:11:57;;;;;;;;;3.00;2.00;;;;;24.85;100.00;101738.41;5063574;28;46663;-75
2023/08/20 01:14:22;;;;;;;;;2.00;2.00;;;;;24.79;100.00;101737.66;5067074;28;45462;-72
2023/08/20 01:16:49;;;;;;;;;5.00;2.00;;;;;24.78;100.00;101743.13;5067567;28;62479;-73
2023/08/20 01:19:17;;;;;;;;;6.67;2.67;;;;;24.72;100.00;101744.22;5069676;28;45506;-74
2023/08/20 01:21:45;;;;;;;;;3.00;2.00;;;;;24.70;100.00;101739.78;5065181;28;45752;-73
2023/08/20 01:25:07;;;;;;;;;1.33;1.00;;;;;24.63;100.00;101739.13;5072275;28;45549;-74
2023/08/20 01:27:57;;;;;;;;;2.67;1.00;;;;;24.60;100.00;101732.94;4986581;28;45543;-72
2023/08/20 01:30:23;;;;;;;;;3.00;1.33;;;;;24.55;100.00;101733.06;4992927;28;45254;-72
2023/08/20 01:32:50;;;;;;;;;4.00;2.00;;;;;24.52;100.00;101749.41;5029886;28;46282;-73
2023/08/20 01:35:17;;;;;;;;;1.00;1.00;;;;;24.50;100.00;101746.75;5054613;28;45387;-74
2023/08/20 01:37:42;;;;;;;;;3.00;2.00;;;;;24.48;100.00;101745.91;5069232;28;45261;-75
2023/08/20 01:40:10;;;;;;;;;3.00;2.00;;;;;24.47;100.00;101749.53;5062553;28;58215;-73
2023/08/20 01:42:36;;;;;;;;;1.00;1.00;;;;;24.44;100.00;101744.22;5068278;28;46821;-74
2023/08/20 01:45:01;;;;;;;;;1.67;1.00;;;;;24.45;100.00;101742.41;5060621;28;45256;-73
2023/08/20 01:47:27;;;;;;;;;5.00;2.00;;;;;24.40;100.00;101747.09;5066952;28;45389;-73
2023/08/20 01:49:52;;;;;;;;;2.00;1.00;;;;;24.39;100.00;101740.78;5066959;28;56575;-72
2023/08/20 01:52:17;;;;;;;;;1.00;1.00;;;;;24.36;100.00;101737.31;5063186;28;46751;-73
2023/08/20 01:54:43;;;;;;;;;3.00;1.00;;;;;24.31;100.00;101737.44;5062383;28;67459;-75
2023/08/20 01:57:08;;;;;;;;;2.67;2.67;;;;;24.29;100.00;101744.72;5063964;28;45476;-75
2023/08/20 01:59:34;;;;;;;;;1.67;1.67;;;;;24.25;100.00;101733.13;5068288;28;45541;-74
2023/08/20 02:01:59;;;;;;;;;1.33;1.33;;;;;24.25;100.00;101734.94;5071509;28;68648;-76
2023/08/20 02:04:24;;;;;;;;;4.67;1.67;;;;;24.24;100.00;101743.97;5073642;28;63986;-74
2023/08/20 02:06:49;;;;;;;;;4.00;2.00;;;;;24.21;100.00;101736.84;5062666;28;61457;-73
2023/08/20 02:09:16;;;;;;;;;7.67;1.33;;;;;24.20;100.00;101739.59;5061848;27;60684;-73
2023/08/20 02:11:41;;;;;;;;;2.00;2.00;;;;;24.18;100.00;101753.13;5068885;27;46691;-74
2023/08/20 02:14:07;;;;;;;;;2.00;1.00;;;;;24.15;100.00;101752.34;5066264;28;62777;-74
2023/08/20 02:16:32;;;;;;;;;3.33;1.00;;;;;24.10;100.00;101749.78;5060802;28;57957;-73
2023/08/20 02:18:57;;;;;;;;;3.00;2.00;;;;;24.11;100.00;101758.75;5060416;28;62789;-73
2023/08/20 02:21:23;;;;;;;;;2.67;1.00;;;;;24.05;100.00;101757.13;5059989;28;54089;-73
2023/08/20 02:23:48;;;;;;;;;1.00;1.00;;;;;24.02;100.00;101754.50;5064276;28;50494;-73
2023/08/20 02:26:14;;;;;;;;;1.67;1.00;;;;;24.02;100.00;101751.81;5062530;28;62143;-74
2023/08/20 02:28:40;;;;;;;;;3.00;2.00;;;;;24.02;100.00;101755.41;5067337;28;45314;-76
2023/08/20 02:31:05;;;;;;;;;2.33;1.00;;;;;24.01;100.00;101759.03;5067121;28;57087;-73
2023/08/20 02:33:31;;;;;;;;;1.33;1.33;;;;;23.99;100.00;101757.31;5068401;28;61444;-73
2023/08/20 02:36:03;;;;;;;;;1.00;1.00;;;;;23.97;100.00;101748.38;5071910;28;45400;-75
2023/08/20 02:38:29;;;;;;;;;3.00;1.33;;;;;23.93;100.00;101753.00;5071838;27;45399;-75
2023/08/20 02:40:55;;;;;;;;;1.67;1.00;;;;;23.93;100.00;101755.69;5053542;28;45501;-75
2023/08/20 02:43:20;;;;;;;;;3.00;2.00;;;;;23.91;100.00;101744.03;5069094;28;45272;-74
2023/08/20 02:45:45;;;;;;;;;2.00;2.00;;;;;23.88;100.00;101749.53;5073952;28;56581;-73
2023/08/20 02:48:11;;;;;;;;;3.00;3.00;;;;;23.84;100.00;101742.47;5073531;28;61963;-75
2023/08/20 02:50:36;;;;;;;;;1.33;1.33;;;;;23.82;100.00;101744.34;5076283;28;56557;-75
2023/08/20 02:53:03;;;;;;;;;3.33;2.00;;;;;23.83;100.00;101745.22;5062248;28;48428;-74
2023/08/20 02:55:28;;;;;;;;;1.00;1.00;;;;;23.82;100.00;101744.34;5056600;28;45254;-73
2023/08/20 02:57:54;;;;;;;;;1.33;1.00;;;;;23.80;100.00;101748.88;5065231;28;45311;-73
2023/08/20 03:00:19;;;;;;;;;2.00;2.00;;;;;23.80;100.00;101748.88;5061122;28;67272;-72
2023/08/20 03:02:44;;;;;;;;;4.00;2.00;;;;;23.78;100.00;101748.94;5062364;28;66902;-73
2023/08/20 03:05:10;;;;;;;;;3.67;1.67;;;;;23.76;100.00;101752.63;5064895;28;63875;-73
2023/08/20 03:07:35;;;;;;;;;1.00;1.00;;;;;23.77;100.00;101744.47;5065127;28;61439;-75
2023/08/20 03:10:00;;;;;;;;;1.33;1.33;;;;;23.77;100.00;101747.16;5074700;28;67148;-73
2023/08/20 03:12:26;;;;;;;;;4.00;2.00;;;;;23.76;100.00;101747.22;5066773;28;53709;-73
2023/08/20 03:14:51;;;;;;;;;2.67;2.67;;;;;23.77;100.00;101741.78;5071245;28;63996;-73
2023/08/20 03:17:16;;;;;;;;;2.00;2.00;;;;;23.74;100.00;101738.28;5071295;28;54454;-73
2023/08/20 03:19:57;;;;;;;;;1.00;1.00;;;;;23.71;100.00;101746.47;5074868;28;57486;-75
2023/08/20 03:22:23;;;;;;;;;3.67;2.00;;;;;23.72;100.00;101748.22;5059166;28;45381;-74
2023/08/20 03:24:48;;;;;;;;;2.33;2.00;;;;;23.70;100.00;101744.66;5041294;28;45270;-72
2023/08/20 03:27:13;;;;;;;;;2.33;2.00;;;;;23.66;100.00;101741.19;5062827;28;62546;-73
2023/08/20 03:29:39;;;;;;;;;6.67;2.00;;;;;23.67;100.00;101740.28;5059835;28;70314;-74
2023/08/20 03:32:04;;;;;;;;;4.00;1.00;;;;;23.70;100.00;101744.66;5069634;28;69634;-72
2023/08/20 03:34:29;;;;;;;;;1.33;1.33;;;;;23.72;100.00;101745.53;5066430;28;45952;-75
2023/08/20 03:36:55;;;;;;;;;1.67;1.00;;;;;23.69;100.00;101743.78;5070516;28;60448;-73
2023/08/20 03:39:20;;;;;;;;;2.00;2.00;;;;;23.68;100.00;101747.41;5070052;27;68216;-75
2023/08/20 03:41:46;;;;;;;;;1.67;1.67;;;;;23.69;100.00;101751.88;5068735;28;45344;-73
2023/08/20 03:44:11;;;;;;;;;4.67;1.67;;;;;23.64;100.00;101747.56;5070972;28;62200;-73
2023/08/20 03:46:36;;;;;;;;;3.00;1.33;;;;;23.65;100.00;101743.91;5070459;28;60159;-73
2023/08/20 03:49:02;;;;;;;;;5.00;2.00;;;;;23.63;100.00;101743.97;5074561;28;67973;-74
2023/08/20 03:51:27;;;;;;;;;5.00;2.00;;;;;23.57;100.00;101741.44;5076058;28;45489;-73
2023/08/20 03:53:52;;;;;;;;;4.33;2.00;;;;;23.57;100.00;101744.13;5077473;28;51797;-76
2023/08/20 03:56:17;;;;;;;;;3.00;2.00;;;;;23.57;100.00;101748.63;5066102;28;45428;-75
2023/08/20 03:58:43;;;;;;;;;1.00;1.00;;;;;23.52;100.00;101751.44;5071989;28;47977;-73
2023/08/20 04:01:08;;;;;;;;;4.67;2.00;;;;;23.50;100.00;101758.72;5064275;28;67236;-74
2023/08/20 04:03:33;;;;;;;;;3.33;1.00;;;;;23.46;100.00;101763.28;5060998;28;63563;-76
2023/08/20 04:05:59;;;;;;;;;3.00;2.00;;;;;23.46;100.00;101766.00;5072200;28;58516;-73
2023/08/20 04:08:24;;;;;;;;;1.33;1.33;;;;;23.45;100.00;101772.31;5068753;28;64757;-73
2023/08/20 04:10:50;;;;;;;;;1.00;1.00;;;;;23.45;100.00;101761.53;5070381;28;58662;-74
2023/08/20 04:13:16;;;;;;;;;5.00;3.00;;;;;23.46;100.00;101763.28;5069509;28;45541;-72
2023/08/20 04:15:41;;;;;;;;;4.00;3.00;;;;;23.45;100.00;101769.63;5069483;28;45473;-74
2023/08/20 04:18:07;;;;;;;;;2.67;2.00;;;;;23.45;100.00;101772.31;5077216;27;67209;-74
2023/08/20 04:20:33;;;;;;;;;3.00;1.33;;;;;23.41;100.00;101770.63;5075439;28;45532;-73
2023/08/20 04:22:58;;;;;;;;;2.67;1.33;;;;;23.36;100.00;101772.56;5059823;28;45224;-73
2023/08/20 04:25:24;;;;;;;;;2.00;2.00;;;;;23.36;100.00;101769.84;5072595;28;61288;-74
2023/08/20 04:27:49;;;;;;;;;3.00;2.00;;;;;23.37;100.00;101774.31;5059766;28;72237;-73
2023/08/20 04:30:14;;;;;;;;;1.67;1.00;;;;;23.40;100.00;101765.28;5073240;28;65962;-74
2023/08/20 04:32:40;;;;;;;;;2.00;2.00;;;;;23.41;100.00;101764.34;5064870;28;45590;-76
2023/08/20 04:35:06;;;;;;;;;2.00;2.00;;;;;23.37;100.00;101760.84;5070705;28;45525;-72
2023/08/20 04:37:31;;;;;;;;;2.00;2.00;;;;;23.39;100.00;101769.78;5068714;28;47706;-76
2023/08/20 04:39:56;;;;;;;;;2.00;2.00;;;;;23.38;100.00;101770.69;5054089;28;71153;-73
2023/08/20 04:42:22;;;;;;;;;2.00;2.00;;;;;23.38;100.00;101769.81;5070052;28;65213;-73
2023/08/20 04:44:47;;;;;;;;;4.33;2.67;;;;;23.37;100.00;101771.63;5067310;28;45406;-73
2023/08/20 04:47:12;;;;;;;;;2.00;2.00;;;;;23.42;100.00;101772.38;5072909;28;69612;-75
2023/08/20 04:49:38;;;;;;;;;5.00;2.33;;;;;23.43;100.00;101770.56;5073763;28;45454;-76
2023/08/20 04:52:03;;;;;;;;;3.67;3.00;;;;;23.39;100.00;101775.19;5075774;28;45319;-73
2023/08/20 04:54:29;;;;;;;;;2.67;2.00;;;;;23.41;100.00;101775.13;5075441;28;45419;-73
2023/08/20 04:56:54;;;;;;;;;2.00;1.67;;;;;23.39;100.00;101777.00;5064846;28;67041;-73
2023/08/20 04:59:19;;;;;;;;;2.00;1.00;;;;;23.35;100.00;101781.56;5074973;28;51464;-72
2023/08/20 05:01:45;;;;;;;;;3.00;1.33;;;;;23.32;100.00;101781.66;5063762;28;60590;-73
2023/08/20 05:04:10;;;;;;;;;5.00;2.00;;;;;23.33;100.00;101786.13;5066095;28;60695;-74
2023/08/20 05:06:35;;;;;;;;;3.33;2.67;;;;;23.37;100.00;101784.22;5064065;28;47402;-73
2023/08/20 05:09:01;;;;;;;;;2.00;2.00;;;;;23.37;100.00;101786.91;5065250;28;45400;-75
2023/08/20 05:11:26;;;;;;;;;2.00;2.00;;;;;23.38;100.00;101785.97;5058285;28;52725;-73
2023/08/20 05:13:51;;;;;;;;;2.33;2.00;;;;;23.39;100.00;101783.28;5065600;28;54080;-75
2023/08/20 05:16:17;;;;;;;;;3.67;2.67;;;;;23.37;100.00;101789.59;5054496;28;67787;-73
2023/08/20 05:18:42;;;;;;;;;5.00;2.33;;;;;23.36;100.00;101793.25;5075187;28;61410;-74
2023/08/20 05:21:08;;;;;;;;;2.00;2.00;;;;;23.36;100.00;101794.13;5078071;28;45409;-74
2023/08/20 05:23:33;;;;;;;;;4.00;2.33;;;;;23.39;100.00;101791.34;5077261;28;45372;-73
2023/08/20 05:25:58;;;;;;;;;2.33;2.00;;;;;23.41;100.00;101792.19;5072539;28;45461;-72
2023/08/20 05:28:24;;;;;;;;;2.00;2.00;;;;;23.37;100.00;101787.78;5070408;28;67089;-74
2023/08/20 05:30:55;;;;;;;;;3.00;3.00;;;;;23.39;100.00;101791.34;5064554;28;45262;-75
2023/08/20 05:33:20;;;;;;;;;2.67;2.67;;;;;23.38;100.00;101797.66;5071549;28;45538;-74
2023/08/20 05:35:46;;;;;;;;;3.00;2.00;;;;;23.40;100.00;101789.53;5066837;28;66554;-74
2023/08/20 05:38:11;;;;;;;;;3.00;2.00;;;;;23.40;100.00;101787.72;5066898;28;45549;-74
2023/08/20 05:40:36;;;;;;;;;6.00;3.33;;;;;23.43;100.00;101795.72;5070367;27;45375;-73
2023/08/20 05:43:02;;;;;;;;;4.00;3.00;;;;;23.42;100.00;101799.34;5065161;28;45318;-73
2023/08/20 05:45:27;;;;;;;;;3.33;2.00;;;;;23.44;100.00;101797.50;5071220;28;54059;-73
2023/08/20 05:47:52;;;;;;;;;1.00;1.00;;;;;23.47;100.00;101794.72;5068290;28;66046;-73
2023/08/20 05:50:18;;;;;;;;;2.00;2.00;;;;;23.55;100.00;101794.50;5073002;28;65062;-73
2023/08/20 05:52:43;;;;;;;;;5.67;1.33;;;;;23.57;100.00;101808.81;5073351;28;45488;-72
2023/08/20 05:55:08;;;;;;;;;5.00;3.00;;;;;23.60;100.00;101805.19;5074042;28;67632;-72
2023/08/20 05:57:36;;;;;;;;;2.00;2.00;;;;;23.67;100.00;101814.88;5076875;28;45399;-73
2023/08/20 06:00:02;;;;;;;;;5.00;3.00;;;;;23.67;100.00;101813.06;5058373;28;45335;-73
2023/08/20 06:02:27;;;;;;;;;3.33;2.33;;;;;23.73;100.00;101814.72;5063598;28;45428;-72
2023/08/20 06:04:52;;;;;;;;;3.00;2.00;;;;;23.72;100.00;101811.13;5071156;27;69035;-74
2023/08/20 06:07:18;;;;;;;;;3.00;2.00;;;;;23.77;100.00;101821.81;5068828;27;64507;-73
2023/08/20 06:09:43;;;;;;;;;3.00;1.33;;;;;23.77;100.00;101814.59;5070723;27;50933;-73
2023/08/20 06:12:08;;;;;;;;;3.00;1.00;;;;;23.77;100.00;101813.72;5063419;28;45502;-74
2023/08/20 06:14:34;;;;;;;;;4.00;2.00;;;;;23.78;100.00;101819.06;5072672;28;47537;-73
2023/08/20 06:16:59;;;;;;;;;4.33;3.00;;;;;23.82;100.00;101821.69;5070019;28;63809;-73
2023/08/20 06:19:24;;;;;;;;;3.00;3.00;;;;;23.84;100.00;101814.41;5074162;28;57902;-73
2023/08/20 06:21:50;;;;;;;;;3.33;3.00;;;;;23.85;100.00;101818.88;5075445;28;45336;-73
2023/08/20 06:24:15;;;;;;;;;2.00;2.00;;;;;23.92;100.00;101818.66;5069749;28;66567;-73
2023/08/20 06:26:41;;;;;;;;;3.33;3.33;;;;;23.92;100.00;101821.38;5057864;28;45367;-73
2023/08/20 06:29:06;;;;;;;;;3.00;3.00;;;;;23.95;100.00;101820.38;5069343;28;45459;-75
2023/08/20 06:31:31;;;;;;;;;3.00;3.00;;;;;23.99;100.00;101824.75;5059470;28;57709;-72
2023/08/20 06:33:57;;;;;;;;;4.00;3.00;;;;;24.05;100.00;101825.47;5071662;28;46412;-74
2023/08/20 06:36:22;;;;;;;;;2.33;2.00;;;;;24.07;100.00;101829.94;5061942;28;45275;-76
2023/08/20 06:38:47;;;;;;;;;4.00;2.33;;;;;24.11;100.00;101834.31;5069477;27;63681;-76
2023/08/20 06:41:13;;;;;;;;;2.00;2.00;;;;;24.17;100.00;101834.13;5062639;28;52272;-73
2023/08/20 06:43:38;;;;;;;;;5.00;3.00;;;;;24.19;100.00;101822.38;5068151;28;63042;-73
2023/08/20 06:46:03;;;;;;;;;5.00;3.33;;;;;24.26;100.00;101825.75;5066189;28;64984;-73
2023/08/20 06:48:29;;;;;;;;;3.67;2.00;;;;;24.33;100.00;101830.03;5068654;28;62809;-74
2023/08/20 06:50:54;;;;;;;;;4.00;3.00;;;;;24.37;100.00;101826.34;5061676;28;63125;-73
2023/08/20 06:53:19;;;;;;;;;4.00;3.00;;;;;24.45;100.00;101832.41;5073082;28;45710;-73
2023/08/20 06:55:44;;;;;;;;;6.00;4.00;;;;;24.47;100.00;101825.13;5075154;28;65803;-74
2023/08/20 06:58:10;;;;;;;;;4.00;2.00;;;;;24.51;100.00;101834.91;5075844;28;51700;-73
2023/08/20 07:00:35;;;;;;;;;3.67;3.00;;;;;24.60;100.00;101830.16;5057674;28;45617;-73
2023/08/20 07:03:01;;;;;;;;;4.33;3.00;;;;;24.64;100.00;101835.41;5073588;28;46476;-74
2023/08/20 07:05:26;;;;;;;;;4.00;4.00;;;;;24.68;100.00;101830.81;5077118;28;59782;-74
2023/08/20 07:07:52;;;;;;;;;3.33;3.33;;;;;24.73;100.00;101831.53;5079831;28;45219;-72
2023/08/20 07:10:17;;;;;;;;;3.00;2.33;;;;;24.76;100.00;101832.31;5078307;28;54821;-71
2023/08/20 07:12:42;;;;;;;;;4.33;3.00;;;;;24.83;100.00;101836.59;5075025;28;46735;-72
2023/08/20 07:15:08;;;;;;;;;5.00;3.00;;;;;24.87;100.00;101836.47;5073759;27;45439;-74
2023/08/20 07:17:34;;;;;;;;;5.00;2.00;;;;;24.89;100.00;101843.63;5078298;27;45795;-74
2023/08/20 07:19:59;;;;;;;;;4.33;4.33;;;;;24.91;100.00;101841.75;5078928;28;45354;-75
2023/08/20 07:22:24;;;;;;;;;4.00;3.00;;;;;24.92;100.00;101832.69;5076949;28;51828;-72
2023/08/20 07:24:50;;;;;;;;;2.67;2.33;;;;;24.95;100.00;101837.13;5075446;28;66418;-73
2023/08/20 07:27:15;;;;;;;;;4.67;3.00;;;;;24.96;100.00;101845.19;5066534;28;45533;-74
2023/08/20 07:29:41;;;;;;;;;2.33;2.33;;;;;24.97;100.00;101841.53;5068970;28;46874;-73
2023/08/20 07:32:06;;;;;;;;;3.33;3.33;;;;;25.02;100.00;101841.38;5063565;28;62326;-73
2023/08/20 07:34:33;;;;;;;;;4.33;4.00;;;;;25.03;100.00;101844.03;5065278;28;45273;-71
2023/08/20 07:36:59;;;;;;;;;7.67;3.67;;;;;25.04;100.00;101837.72;5063596;28;45780;-72
2023/08/20 07:39:24;;;;;;;;;5.00;4.00;;;;;25.07;100.00;101840.31;5062660;28;46537;-73
2023/08/20 07:41:49;;;;;;;;;4.00;4.00;;;;;25.12;100.00;101845.59;5051836;28;66800;-71
2023/08/20 07:44:15;;;;;;;;;4.67;4.00;;;;;25.20;100.00;101845.34;5175999;22;59276;-74
2023/08/20 07:46:41;;;;;;;;;4.67;3.00;;;;;25.20;100.00;101845.34;5053413;28;61037;-75
2023/08/20 07:49:06;;;;;;;;;5.00;5.00;;;;;25.21;100.00;101849.81;5056451;28;45336;-73
2023/08/20 07:51:31;;;;;;;;;4.33;3.00;;;;;25.27;100.00;101839.66;5054603;28;67077;-74
2023/08/20 07:53:58;;;;;;;;;3.67;3.67;;;;;25.29;100.00;101840.50;5054713;28;68398;-73
2023/08/20 07:56:23;;;;;;;;;3.00;3.00;;;;;25.38;100.00;101842.00;5052367;28;45500;-73
2023/08/20 07:58:49;;;;;;;;;8.00;4.33;;;;;25.46;100.00;101839.00;5058125;28;45494;-73
2023/08/20 08:01:14;;;;;;;;;4.00;4.00;;;;;25.51;100.00;101832.50;5056224;28;52355;-73
2023/08/20 08:03:40;;;;;;;;;4.33;4.33;;;;;25.58;100.00;101841.31;5057592;28;45448;-74
2023/08/20 08:06:05;;;;;;;;;8.33;4.00;;;;;25.64;100.00;101837.50;5054163;28;45554;-73
2023/08/20 08:08:31;;;;;;;;;5.00;5.00;;;;;25.73;100.00;101848.88;5051318;28;48831;-72
2023/08/20 08:10:56;;;;;;;;;5.00;4.00;;;;;25.83;100.00;101836.81;5047967;28;68207;-74
2023/08/20 08:13:22;;;;;;;;;4.67;4.00;;;;;25.97;100.00;101839.00;5049733;28;46058;-77
2023/08/20 08:15:48;;;;;;;;;5.00;5.00;;;;;26.02;100.00;101839.72;5056466;28;45388;-78
2023/08/20 08:18:14;;;;;;;;;5.00;5.00;;;;;26.09;100.00;101840.34;5056662;28;45574;-77
2023/08/20 08:20:39;;;;;;;;;7.67;6.00;;;;;26.07;100.00;101835.00;5057291;28;46116;-77
2023/08/20 08:23:05;;;;;;;;;6.00;4.00;;;;;26.23;100.00;101838.03;5053776;28;45483;-77
2023/08/20 08:25:30;;;;;;;;;2.00;2.00;;;;;26.30;100.00;101842.25;5039973;28;45468;-77
2023/08/20 08:27:56;;;;;;;;;6.33;6.33;;;;;26.40;100.00;101856.31;5049987;28;63056;-77
2023/08/20 08:30:21;;;;;;;;;5.33;5.33;;;;;26.48;100.00;101856.97;5054819;28;65133;-78
2023/08/20 08:32:46;;;;;;;;;5.00;4.00;;;;;26.54;100.00;101853.13;5051659;28;45360;-78
2023/08/20 08:35:12;;;;;;;;;5.33;4.00;;;;;26.63;100.00;101852.72;5054916;28;61164;-75
2023/08/20 08:37:37;;;;;;;;;5.33;5.33;;;;;26.72;100.00;101860.50;5052166;28;62053;-77
2023/08/20 08:40:06;;;;;;;;;7.67;6.33;;;;;26.77;100.00;101863.03;5051332;28;45803;-75
2023/08/20 08:42:33;;;;;;;;;7.33;4.67;;;;;26.80;100.00;101862.91;5057536;28;45545;-80
2023/08/20 08:44:59;;;;;;;;;5.00;5.00;;;;;26.85;100.00;101863.63;5057280;28;45514;-77
2023/08/20 08:47:25;;;;;;;;;8.00;5.33;;;;;26.84;100.00;101861.81;5054984;28;45691;-75
2023/08/20 08:49:51;;;;;;;;;4.33;4.33;;;;;26.87;100.00;101862.59;5001987;28;51023;-77
2023/08/20 08:52:16;;;;;;;;;3.33;3.33;;;;;26.94;100.00;101857.81;5024825;28;67604;-77
2023/08/20 08:54:42;;;;;;;;;6.00;5.00;;;;;26.98;100.00;101856.75;5043213;28;45568;-76
2023/08/20 08:57:07;;;;;;;;;6.00;4.33;;;;;26.96;100.00;101864.06;5045477;28;45641;-77
2023/08/20 08:59:33;;;;;;;;;6.33;5.00;;;;;27.01;100.00;101853.91;5036560;28;61218;-78
2023/08/20 09:01:58;;;;;;;;;5.33;5.33;;;;;27.10;100.00;101855.38;5041098;28;62396;-75
2023/08/20 09:04:23;;;;;;;;;5.00;5.00;;;;;27.13;100.00;101850.72;5037609;28;49540;-78
2023/08/20 09:06:53;;;;;;;;;4.00;4.00;;;;;27.19;100.00;101843.28;5045927;28;47898;-75
2023/08/20 09:09:20;;;;;;;;;7.00;5.33;;;;;27.24;100.00;101843.97;5044370;28;48732;-77
2023/08/20 09:11:46;;;;;;;;;6.33;5.00;;;;;27.29;100.00;101828.38;5047152;28;45825;-76
2023/08/20 09:14:21;;;;;;;;;4.33;4.00;;;;;27.39;100.00;101837.88;5046004;28;45532;-77
2023/08/20 09:16:47;;;;;;;;;9.00;5.33;;;;;27.35;100.00;101838.94;5042370;28;45677;-77
2023/08/20 09:19:12;;;;;;;;;7.00;4.00;;;;;27.43;100.00;101847.63;5046818;28;46397;-76
2023/08/20 09:21:37;;;;;;;;;6.00;3.67;;;;;27.62;100.00;101837.75;5045779;28;60874;-76
2023/08/20 09:24:03;;;;;;;;;4.67;4.67;;;;;27.77;100.00;101827.19;5043959;28;65233;-75
2023/08/20 09:26:29;;;;;;;;;6.00;4.00;;;;;27.96;100.00;101829.94;5045578;28;45607;-76
2023/08/20 09:28:56;;;;;;;;;4.00;4.00;;;;;28.12;100.00;101831.88;5046247;28;46773;-75
2023/08/20 09:31:37;;;;;;;;;6.67;4.00;;;;;28.33;100.00;101834.56;5045861;28;45522;-76
2023/08/20 09:34:02;;;;;;;;;5.67;5.33;;;;;28.55;100.00;101826.28;5042001;28;45553;-76
2023/08/20 09:36:32;;;;;;;;;5.33;5.00;;;;;28.71;100.00;101822.75;5045242;28;45543;-76
2023/08/20 09:38:57;;;;;;;;;4.00;4.00;;;;;28.84;100.00;101827.56;5043891;28;46503;-76
2023/08/20 09:41:23;;;;;;;;;5.00;5.00;;;;;29.00;100.00;101823.16;5048190;28;66922;-76
2023/08/20 09:43:48;;;;;;;;;4.00;4.00;;;;;29.17;100.00;101819.56;5028743;28;65224;-76
2023/08/20 09:46:16;;;;;;;;;7.33;6.00;;;;;29.33;100.00;101819.66;5030789;28;46333;-76
2023/08/20 09:48:44;;;;;;;;;5.00;5.00;;;;;29.45;100.00;101827.19;5027706;28;47316;-76
2023/08/20 09:51:11;;;;;;;;;4.33;4.33;;;;;29.40;100.00;101824.72;5046173;28;67997;-77
2023/08/20 09:53:49;;;;;;;;;7.33;4.67;;;;;29.40;100.00;101831.97;5048492;28;45842;-76
2023/08/20 09:56:24;;;;;;;;;5.33;5.33;;;;;29.36;100.00;101822.25;5047121;28;45551;-76
2023/08/20 09:58:50;;;;;;;;;6.33;5.00;;;;;29.22;100.00;101826.53;5052311;28;47454;-77
2023/08/20 10:01:16;;;;;;;;;5.00;4.67;;;;;29.14;100.00;101831.50;5037730;28;55785;-76
2023/08/20 10:03:41;;;;;;;;;5.00;5.00;;;;;29.11;100.00;101831.66;5055318;28;45526;-75
2023/08/20 10:06:07;;;;;;;;;5.00;5.00;;;;;29.04;100.00;101830.22;5053124;28;61177;-76
2023/08/20 10:08:33;;;;;;;;;6.00;4.33;;;;;29.00;100.00;101834.03;5055316;28;45876;-75
2023/08/20 10:10:58;;;;;;;;;5.67;5.67;;;;;28.98;100.00;101827.81;5053909;28;69864;-76
2023/08/20 10:13:24;;;;;;;;;6.00;4.33;;;;;29.00;100.00;101825.88;5051069;28;65066;-74
2023/08/20 10:15:50;;;;;;;;;8.00;5.00;;;;;29.06;100.00;101822.84;5038219;28;45372;-76
2023/08/20 10:18:19;;;;;;;;;7.00;4.00;;;;;29.09;100.00;101819.97;5037723;28;46607;-75
2023/08/20 10:20:44;;;;;;;;;3.33;3.33;;;;;29.14;100.00;101826.06;5056369;28;45340;-75
2023/08/20 10:23:12;;;;;;;;;4.00;4.00;;;;;29.16;100.00;101821.41;5036874;28;60440;-77
2023/08/20 10:25:42;;;;;;;;;5.00;3.67;;;;;29.18;100.00;101814.03;5049479;28;45474;-77
2023/08/20 10:28:28;;;;;;;;;4.33;4.33;;;;;29.25;100.00;101817.34;5055582;28;46796;-76
2023/08/20 10:31:12;;;;;;;;;3.00;3.00;;;;;29.27;100.00;101811.84;5051064;28;45445;-76
2023/08/20 10:33:48;;;;;;;;;6.00;4.00;;;;;29.29;100.00;101807.19;5055257;28;45446;-75
2023/08/20 10:36:17;;;;;;;;;6.00;4.67;;;;;29.37;100.00;101810.41;5056150;28;45502;-76
2023/08/20 10:38:44;;;;;;;;;4.67;4.00;;;;;29.44;100.00;101801.81;5052977;28;46911;-76
2023/08/20 10:41:10;;;;;;;;;4.00;4.00;;;;;29.57;100.00;101804.81;5055551;28;45423;-75
2023/08/20 10:43:38;;;;;;;;;5.00;5.00;;;;;29.69;100.00;101806.88;5055338;28;45292;-76
2023/08/20 10:46:23;;;;;;;;;4.33;4.33;;;;;29.78;100.00;101796.47;5050475;28;45491;-75
2023/08/20 10:49:01;;;;;;;;;5.00;4.50;;;;;29.81;100.00;101799.88;5053842;28;46587;-76
2023/08/20 10:51:27;;;;;;;;;7.33;6.33;;;;;29.91;100.00;101792.09;5055758;28;45334;-75
2023/08/20 10:54:02;;;;;;;;;4.00;4.00;;;;;29.98;100.00;101796.22;5055441;28;45361;-75
2023/08/20 10:56:43;;;;;;;;;4.33;4.33;;;;;30.05;100.00;101799.53;5055466;28;45477;-77
2023/08/20 10:59:14;;;;;;;;;4.00;4.00;;;;;30.14;100.00;101801.75;5051637;28;46621;-76
2023/08/20 11:01:39;;;;;;;;;6.33;4.67;;;;;30.21;100.00;101800.47;5052973;28;45402;-75
2023/08/20 11:04:07;;;;;;;;;4.00;4.00;;;;;30.29;100.00;101806.34;5054956;28;45449;-77
2023/08/20 11:06:33;;;;;;;;;3.00;3.00;;;;;30.42;100.00;101803.81;5037481;28;45629;-77
2023/08/20 11:08:58;;;;;;;;;4.00;4.00;;;;;30.60;100.00;101796.41;5055051;28;47176;-75
2023/08/20 11:11:24;;;;;;;;;4.00;4.00;;;;;30.76;100.00;101792.75;5055197;28;45380;-75
2023/08/20 11:13:50;;;;;;;;;5.00;4.00;;;;;30.94;100.00;101795.34;5055701;28;45210;-76